Miami, Florida
Current Conditions -  °F | °C
As of 5:53 AM on Monday 22 Dec 2014 (Local Time) from KMIA Reporting Station
Broken Clouds Broken Clouds  
Wind Chill: 68°   Ceiling: 25000
Heat Index: 68°   Visibility: 10mi
Dew Point: 65°   Wind: 0mph
Humidity: 90%   Direction: NA
Pressure: 30.02"   Gusts: NA
Location:  25.77°N, 80.19°W
Report Text: KMIA 221053Z 00000KT 10SM FEW022 SCT140 BKN250 20/18 A3002 RMK AO2 SLP165 T02000183 $
Loading
Personal Weather Stations






























Interactive Weather Map New forecast layout! Learn more

10-Day Weather Forecast

Advertisements
Track Severe Weather on mobile